createdAt,value
2019-01-09T00:02:47.890Z,6.18
2019-01-09T00:05:36.764Z,6.14
2019-01-09T00:08:25.698Z,6.12
2019-01-09T00:11:14.577Z,6.11
2019-01-09T00:14:03.814Z,6.10
2019-01-09T00:16:52.746Z,6.11
2019-01-09T00:19:41.643Z,6.10
2019-01-09T00:22:30.556Z,6.09
2019-01-09T00:25:19.418Z,6.10
2019-01-09T00:28:08.240Z,6.11
2019-01-09T00:30:50.168Z,6.11
2019-01-09T00:33:19.690Z,6.11
2019-01-09T00:36:08.598Z,6.10
2019-01-09T00:38:57.501Z,6.08
2019-01-09T00:41:46.373Z,6.08
2019-01-09T00:44:35.275Z,6.06
2019-01-09T00:47:24.175Z,6.04
2019-01-09T00:50:13.265Z,6.03
2019-01-09T00:52:55.078Z,5.78
2019-01-09T00:55:43.951Z,6.01
2019-01-09T00:58:32.894Z,6.01
2019-01-09T01:01:21.825Z,6.00
2019-01-09T01:04:31.573Z,6.01
2019-01-09T01:07:41.349Z,5.85
2019-01-09T01:11:08.863Z,6.01
2019-01-09T01:14:36.406Z,6.01
2019-01-09T01:18:03.900Z,6.02
2019-01-09T01:21:13.661Z,6.02
2019-01-09T01:24:41.181Z,6.03
2019-01-09T01:28:08.743Z,5.45
2019-01-09T01:31:36.331Z,6.02
2019-01-09T01:34:46.068Z,6.04
2019-01-09T01:37:55.861Z,6.06
2019-01-09T01:41:05.624Z,5.54
2019-01-09T01:44:15.414Z,6.10
2019-01-09T01:47:25.151Z,6.11
2019-01-09T01:50:52.666Z,5.93
2019-01-09T01:54:20.199Z,6.17
2019-01-09T01:57:47.689Z,6.18
2019-01-09T02:00:30.787Z,6.12
2019-01-09T02:03:40.556Z,6.20
2019-01-09T02:10:45.057Z,6.22
2019-01-09T02:13:54.803Z,6.23
2019-01-09T02:17:04.555Z,6.24
2019-01-09T02:20:14.272Z,6.24
2019-01-09T02:23:41.799Z,6.24
2019-01-09T02:27:09.326Z,5.96
2019-01-09T02:30:36.864Z,6.27
2019-01-09T02:33:25.700Z,6.28
2019-01-09T02:35:55.137Z,6.29
2019-01-09T02:38:43.977Z,6.30
2019-01-09T02:41:32.775Z,5.74
2019-01-09T02:44:21.695Z,6.30
2019-01-09T02:47:10.525Z,6.31
2019-01-09T02:49:59.382Z,6.30
2019-01-09T02:52:48.514Z,6.29
2019-01-09T02:55:37.379Z,6.27
2019-01-09T02:58:26.562Z,6.25
2019-01-09T03:01:15.389Z,6.17
2019-01-09T03:04:04.290Z,6.21
2019-01-09T03:06:53.212Z,5.92
2019-01-09T03:09:41.994Z,6.17
2019-01-09T03:12:30.837Z,6.15
2019-01-09T03:15:19.755Z,6.12
2019-01-09T03:18:01.667Z,6.10
2019-01-09T03:20:50.525Z,6.07
2019-01-09T03:23:39.353Z,6.03
2019-01-09T03:26:28.149Z,5.55
2019-01-09T03:29:17.063Z,5.98
2019-01-09T03:32:05.981Z,5.39
2019-01-09T03:34:54.883Z,5.92
2019-01-09T03:37:43.799Z,5.88
2019-01-09T03:40:32.731Z,5.87
2019-01-09T03:43:21.624Z,5.86
2019-01-09T03:46:10.478Z,5.84
2019-01-09T03:48:59.283Z,5.84
2019-01-09T03:51:48.111Z,5.82
2019-01-09T03:54:37.013Z,5.82
2019-01-09T03:57:06.470Z,5.82
2019-01-09T03:59:55.388Z,5.82
2019-01-09T04:02:44.199Z,5.55
2019-01-09T04:05:33.050Z,5.62
2019-01-09T04:08:02.550Z,5.84
2019-01-09T04:10:43.820Z,5.86
2019-01-09T04:13:32.668Z,5.87
2019-01-09T04:16:21.480Z,5.88
2019-01-09T04:19:03.552Z,5.87
2019-01-09T04:21:52.384Z,5.86
2019-01-09T04:24:40.897Z,5.87
2019-01-09T04:27:29.711Z,5.86
2019-01-09T04:30:18.549Z,5.81
2019-01-09T04:33:07.347Z,5.86
2019-01-09T04:35:56.269Z,5.87
2019-01-09T04:38:45.078Z,5.87
2019-01-09T04:41:33.978Z,5.87
2019-01-09T04:44:22.865Z,5.88
2019-01-09T04:47:11.696Z,5.90
2019-01-09T04:49:52.973Z,5.91
2019-01-09T04:52:41.745Z,5.91
2019-01-09T04:55:30.580Z,5.91
2019-01-09T04:58:19.389Z,5.89
2019-01-09T05:01:08.232Z,5.88
2019-01-09T05:03:57.134Z,5.87
2019-01-09T05:06:46.004Z,5.85
2019-01-09T05:09:34.778Z,5.82
2019-01-09T05:12:23.609Z,5.79
2019-01-09T05:15:12.439Z,5.76
2019-01-09T05:18:01.277Z,5.73
2019-01-09T05:20:50.129Z,5.69
2019-01-09T05:23:39.025Z,5.65
2019-01-09T05:26:27.843Z,5.61
2019-01-09T05:29:16.701Z,4.99
2019-01-09T05:32:05.518Z,5.55
2019-01-09T05:34:54.329Z,5.53
2019-01-09T05:37:43.183Z,5.52
2019-01-09T05:40:32.053Z,5.52
2019-01-09T05:43:13.584Z,5.53
2019-01-09T05:46:02.479Z,5.54
2019-01-09T05:48:32.014Z,5.55
2019-01-09T05:51:20.922Z,5.57
2019-01-09T05:54:09.709Z,5.59
2019-01-09T05:56:58.551Z,5.10
2019-01-09T05:59:47.392Z,5.65
2019-01-09T06:02:36.330Z,5.67
2019-01-09T06:05:15.777Z,5.71
2019-01-09T06:08:04.661Z,5.74
2019-01-09T06:10:53.480Z,5.77
2019-01-09T06:13:42.316Z,5.76
2019-01-09T06:16:31.124Z,5.75
2019-01-09T06:19:19.963Z,5.71
2019-01-09T06:22:08.454Z,5.64
2019-01-09T06:24:57.373Z,5.57
2019-01-09T06:27:46.235Z,5.02
2019-01-09T06:30:35.059Z,5.38
2019-01-09T06:33:23.891Z,5.30
2019-01-09T06:36:12.837Z,4.74
2019-01-09T06:39:01.650Z,5.13
2019-01-09T06:41:43.463Z,5.06
2019-01-09T06:44:12.932Z,4.99
2019-01-09T06:47:01.776Z,4.92
2019-01-09T06:49:50.586Z,4.86
2019-01-09T06:52:39.436Z,4.80
2019-01-09T06:55:28.270Z,4.77
2019-01-09T06:58:17.122Z,4.76
2019-01-09T07:00:59.051Z,4.78
2019-01-09T07:03:47.930Z,4.81
2019-01-09T07:06:36.808Z,4.83
2019-01-09T07:09:27.141Z,4.88
2019-01-09T07:11:56.615Z,4.90
2019-01-09T07:14:45.462Z,4.90
2019-01-09T07:17:34.389Z,4.91
2019-01-09T07:20:23.307Z,4.91
2019-01-09T07:23:11.776Z,4.91
2019-01-09T07:26:00.645Z,4.93
2019-01-09T07:28:49.487Z,4.56
2019-01-09T07:31:31.149Z,4.41
2019-01-09T07:34:00.603Z,4.96
2019-01-09T07:36:49.454Z,4.97
2019-01-09T07:39:38.258Z,4.98
2019-01-09T07:42:27.106Z,4.97
2019-01-09T07:44:56.582Z,4.97
2019-01-09T07:47:45.425Z,4.97
2019-01-09T07:50:34.232Z,4.95
2019-01-09T07:53:23.078Z,4.93
2019-01-09T07:56:11.943Z,4.91
2019-01-09T07:59:00.754Z,4.90
2019-01-09T08:01:49.675Z,4.78
2019-01-09T08:04:38.506Z,4.88
2019-01-09T08:07:27.342Z,4.87
2019-01-09T08:10:16.248Z,4.88
2019-01-09T08:13:05.087Z,4.91
2019-01-09T08:15:53.895Z,4.93
2019-01-09T08:18:42.770Z,4.92
2019-01-09T08:21:31.608Z,5.01
2019-01-09T08:24:39.513Z,5.06
2019-01-09T08:27:28.333Z,5.10
2019-01-09T08:30:17.317Z,5.15
2019-01-09T08:32:46.917Z,5.18
2019-01-09T08:35:29.042Z,5.21
2019-01-09T08:38:17.850Z,4.97
2019-01-09T08:41:06.983Z,5.26
2019-01-09T08:43:55.804Z,5.28
2019-01-09T08:46:44.696Z,5.30
2019-01-09T08:49:33.543Z,5.32
2019-01-09T08:52:22.395Z,5.35
2019-01-09T08:54:51.895Z,4.84
2019-01-09T08:57:40.739Z,5.42
2019-01-09T09:00:29.556Z,5.44
2019-01-09T09:03:18.537Z,5.46
2019-01-09T09:06:07.466Z,5.46
2019-01-09T09:08:57.899Z,5.46
2019-01-09T09:11:46.812Z,5.44
2019-01-09T09:14:35.749Z,5.44
2019-01-09T09:17:24.568Z,5.13
2019-01-09T09:20:13.749Z,5.45
2019-01-09T09:22:43.327Z,5.46
2019-01-09T09:25:32.250Z,5.47
2019-01-09T09:28:21.055Z,5.48
2019-01-09T09:31:09.909Z,5.03
2019-01-09T09:33:51.672Z,5.50
2019-01-09T09:36:21.164Z,5.50
2019-01-09T09:38:50.672Z,5.54
2019-01-09T09:41:39.511Z,5.55
2019-01-09T09:44:28.327Z,5.57
2019-01-09T09:47:17.217Z,5.59
2019-01-09T09:49:46.679Z,5.63
2019-01-09T09:52:28.115Z,5.67
2019-01-09T09:55:17.041Z,5.70
2019-01-09T09:58:06.167Z,5.74
2019-01-09T10:00:35.907Z,5.79
2019-01-09T10:03:24.755Z,5.85
2019-01-09T10:05:54.203Z,5.92
2019-01-09T10:08:29.230Z,5.97
2019-01-09T10:11:14.328Z,6.00
2019-01-09T10:13:43.980Z,6.03
2019-01-09T10:16:32.844Z,6.08
2019-01-09T10:19:21.699Z,6.12
2019-01-09T10:22:10.530Z,6.20
2019-01-09T10:24:59.355Z,6.29
2019-01-09T10:27:28.909Z,6.36
2019-01-09T10:30:37.061Z,6.46
2019-01-09T10:33:06.524Z,6.52
2019-01-09T10:35:55.451Z,6.58
2019-01-09T10:38:38.089Z,6.62
2019-01-09T10:41:08.026Z,6.65
2019-01-09T10:43:56.838Z,6.68
2019-01-09T10:46:47.487Z,6.73
2019-01-09T10:49:36.367Z,6.79
2019-01-09T10:52:06.073Z,6.84
2019-01-09T10:54:55.272Z,6.88
2019-01-09T10:57:24.747Z,6.89
2019-01-09T11:00:33.054Z,6.88
2019-01-09T11:03:21.879Z,6.88
2019-01-09T11:06:10.686Z,6.86
2019-01-09T11:08:52.680Z,6.84
2019-01-09T11:11:41.479Z,6.82
2019-01-09T11:14:30.347Z,6.32
2019-01-09T11:17:20.094Z,6.81
2019-01-09T11:19:49.637Z,6.89
2019-01-09T11:22:19.096Z,6.92
2019-01-09T11:25:28.860Z,6.94
2019-01-09T11:28:37.058Z,6.96
2019-01-09T11:31:46.807Z,7.01
2019-01-09T11:34:35.683Z,7.03
2019-01-09T11:37:17.500Z,7.03
2019-01-09T11:40:27.232Z,7.03
2019-01-09T11:43:16.041Z,7.01
2019-01-09T11:45:45.517Z,7.03
2019-01-09T11:48:46.690Z,7.03
2019-01-09T11:51:24.981Z,7.06
2019-01-09T11:53:54.480Z,7.09
2019-01-09T11:56:43.299Z,7.13
2019-01-09T11:59:32.132Z,7.15
2019-01-09T12:02:01.618Z,7.19
2019-01-09T12:04:50.441Z,7.20
2019-01-09T12:07:39.297Z,6.69
2019-01-09T12:10:30.285Z,7.12
2019-01-09T12:12:59.431Z,7.28
2019-01-09T12:16:09.184Z,7.30
2019-01-09T12:19:17.419Z,7.32
2019-01-09T12:22:06.248Z,7.32
2019-01-09T12:24:55.047Z,7.35
2019-01-09T12:30:39.674Z,7.37
2019-01-09T12:33:43.132Z,7.39
2019-01-09T12:36:19.032Z,7.40
2019-01-09T12:39:13.199Z,7.44
2019-01-09T12:41:58.654Z,7.45
2019-01-09T12:45:06.868Z,7.45
2019-01-09T12:47:36.496Z,7.47
2019-01-09T12:50:25.778Z,7.48
2019-01-09T12:53:14.752Z,7.49
2019-01-09T12:56:03.576Z,7.50
2019-01-09T12:58:52.471Z,7.52
2019-01-09T13:01:21.952Z,7.53
2019-01-09T13:04:10.825Z,7.56
2019-01-09T13:06:52.038Z,7.57
2019-01-09T13:09:22.312Z,7.61
2019-01-09T13:11:52.875Z,7.64
2019-01-09T13:14:41.716Z,7.66
2019-01-09T13:17:30.526Z,7.69
2019-01-09T13:20:19.418Z,7.73
2019-01-09T13:23:08.274Z,7.77
2019-01-09T13:25:57.144Z,7.81
2019-01-09T13:28:46.012Z,7.85
2019-01-09T13:31:34.799Z,7.87
2019-01-09T13:34:04.370Z,7.89
2019-01-09T13:36:33.834Z,7.90
2019-01-09T13:39:30.698Z,7.89
2019-01-09T13:41:55.306Z,7.89
2019-01-09T13:44:24.802Z,7.87
2019-01-09T13:46:54.283Z,7.84
2019-01-09T13:49:25.288Z,7.83
2019-01-09T13:52:14.164Z,7.81
2019-01-09T13:55:02.958Z,7.79
2019-01-09T13:57:51.790Z,7.77
2019-01-09T14:00:25.101Z,7.76
2019-01-09T14:03:13.943Z,7.74
2019-01-09T14:06:02.823Z,7.70
2019-01-09T14:08:51.626Z,7.56
2019-01-09T14:11:40.555Z,7.67
2019-01-09T14:14:29.423Z,7.66
2019-01-09T14:17:18.270Z,7.65
2019-01-09T14:20:28.018Z,7.63
2019-01-09T14:23:16.839Z,7.63
2019-01-09T14:26:05.737Z,7.64
2019-01-09T14:28:54.678Z,7.22
2019-01-09T14:31:43.508Z,7.65
2019-01-09T14:34:32.313Z,7.66
2019-01-09T14:37:01.815Z,7.67
2019-01-09T14:39:50.719Z,7.69
2019-01-09T14:42:39.723Z,7.69
2019-01-09T14:45:31.079Z,7.70
2019-01-09T14:48:19.948Z,7.69
2019-01-09T14:51:08.875Z,7.69
2019-01-09T14:53:57.683Z,7.69
2019-01-09T14:59:42.241Z,7.64
2019-01-09T15:02:31.050Z,7.48
2019-01-09T15:05:20.026Z,7.60
2019-01-09T15:08:08.933Z,7.58
2019-01-09T15:10:57.886Z,7.11
2019-01-09T15:13:46.662Z,7.34
2019-01-09T15:16:35.496Z,7.45
2019-01-09T15:19:24.374Z,7.51
2019-01-09T15:22:13.238Z,7.43
2019-01-09T15:24:42.747Z,7.46
2019-01-09T15:27:31.616Z,7.44
2019-01-09T15:30:43.710Z,7.43
2019-01-09T15:33:32.501Z,7.38
2019-01-09T15:36:21.353Z,7.36
2019-01-09T15:39:03.305Z,7.33
2019-01-09T15:41:32.776Z,7.31
2019-01-09T15:47:17.573Z,7.27
2019-01-09T15:50:27.285Z,7.26
2019-01-09T15:53:16.164Z,7.24
2019-01-09T15:56:05.133Z,7.22
2019-01-09T15:58:53.970Z,7.19
2019-01-09T16:04:38.546Z,7.09
2019-01-09T16:07:08.121Z,7.04
2019-01-09T16:09:57.231Z,6.99
2019-01-09T16:12:47.680Z,6.96
2019-01-09T16:15:36.558Z,6.92
2019-01-09T16:18:46.059Z,6.89
2019-01-09T16:21:34.892Z,6.87
2019-01-09T16:24:23.720Z,6.86
2019-01-09T16:27:12.554Z,6.85
2019-01-09T16:29:42.041Z,6.83
2019-01-09T16:32:30.915Z,6.85
2019-01-09T16:35:20.737Z,6.84
2019-01-09T16:38:05.878Z,6.85
2019-01-09T16:40:54.782Z,6.86
2019-01-09T16:43:43.606Z,6.85
2019-01-09T16:46:32.513Z,6.86
2019-01-09T16:49:27.879Z,6.85
2019-01-09T16:52:11.918Z,6.83
2019-01-09T16:55:00.751Z,6.67
2019-01-09T16:57:51.779Z,6.29
2019-01-09T17:01:02.569Z,6.81
2019-01-09T17:03:51.423Z,6.80
2019-01-09T17:07:01.117Z,6.41
2019-01-09T17:09:49.991Z,6.77
2019-01-09T17:12:38.873Z,6.75
2019-01-09T17:15:20.541Z,6.74
2019-01-09T17:18:09.469Z,6.72
2019-01-09T17:20:39.066Z,6.71
2019-01-09T17:23:27.876Z,6.70
2019-01-09T17:26:36.228Z,6.66
2019-01-09T17:29:26.543Z,6.63
2019-01-09T17:31:56.051Z,6.61
2019-01-09T17:35:05.583Z,6.57
2019-01-09T17:37:54.498Z,6.54
2019-01-09T17:40:43.330Z,6.50
2019-01-09T17:43:32.182Z,6.48
2019-01-09T17:46:21.039Z,6.45
2019-01-09T17:49:09.947Z,6.41
2019-01-09T17:51:58.870Z,6.37
2019-01-09T17:54:47.721Z,6.34
2019-01-09T17:57:36.561Z,6.29
2019-01-09T18:00:46.413Z,6.25
2019-01-09T18:03:28.542Z,6.21
2019-01-09T18:06:17.352Z,6.17
2019-01-09T18:09:27.183Z,6.10
2019-01-09T18:12:16.035Z,6.06
2019-01-09T18:15:25.829Z,5.76
2019-01-09T18:18:14.752Z,5.96
2019-01-09T18:20:44.311Z,5.90
2019-01-09T18:23:34.952Z,5.83
2019-01-09T18:26:23.746Z,5.77
2019-01-09T18:28:53.409Z,5.72
2019-01-09T18:32:03.195Z,5.57
2019-01-09T18:34:52.405Z,5.62
2019-01-09T18:38:02.159Z,5.56
2019-01-09T18:41:29.708Z,5.44
2019-01-09T18:44:42.330Z,5.45
2019-01-09T18:48:09.954Z,5.38
2019-01-09T18:51:41.485Z,5.12
2019-01-09T18:54:22.854Z,5.31
2019-01-09T18:56:52.496Z,5.32
2019-01-09T18:59:41.383Z,5.30
2019-01-09T19:02:30.351Z,5.30
2019-01-09T19:04:59.847Z,5.31
2019-01-09T19:07:48.733Z,5.29
2019-01-09T19:10:39.184Z,5.29
2019-01-09T19:13:28.107Z,5.29
2019-01-09T19:16:17.132Z,5.29
2019-01-09T19:19:06.114Z,5.28
2019-01-09T19:21:35.749Z,4.86
2019-01-09T19:24:24.784Z,5.26
2019-01-09T19:27:13.755Z,5.25
2019-01-09T19:29:43.455Z,5.24
2019-01-09T19:32:32.395Z,5.16
2019-01-09T19:35:21.351Z,5.21
2019-01-09T19:38:10.289Z,5.19
2019-01-09T19:40:59.771Z,4.72
2019-01-09T19:46:46.122Z,5.19
2019-01-09T19:49:36.926Z,5.18
2019-01-09T19:52:25.948Z,5.18
2019-01-09T19:55:15.108Z,4.70
2019-01-09T19:58:04.147Z,5.16
2019-01-09T20:00:53.715Z,5.15
2019-01-09T20:03:42.547Z,5.13
2019-01-09T20:06:31.558Z,5.12
2019-01-09T20:09:01.131Z,4.56
2019-01-09T20:11:50.159Z,5.09
2019-01-09T20:14:39.171Z,5.09
2019-01-09T20:17:21.152Z,5.09
2019-01-09T20:20:29.420Z,5.07
2019-01-09T20:23:18.483Z,5.06
2019-01-09T20:26:07.722Z,5.04
2019-01-09T20:28:56.619Z,5.00
2019-01-09T20:31:45.550Z,4.98
2019-01-09T20:34:34.447Z,4.95
2019-01-09T20:37:23.399Z,4.93
2019-01-09T20:40:33.202Z,4.90
2019-01-09T20:43:22.177Z,4.90
2019-01-09T20:46:11.075Z,4.92
2019-01-09T20:48:59.992Z,4.94
2019-01-09T20:51:42.023Z,4.57
2019-01-09T20:54:31.063Z,5.00
2019-01-09T20:57:19.973Z,5.02
2019-01-09T21:00:28.762Z,5.04
2019-01-09T21:03:38.493Z,5.06
2019-01-09T21:06:20.425Z,5.08
2019-01-09T21:09:09.383Z,5.11
2019-01-09T21:11:58.213Z,5.13
2019-01-09T21:14:47.135Z,5.14
2019-01-09T21:17:36.099Z,4.93
2019-01-09T21:20:25.094Z,5.20
2019-01-09T21:23:14.003Z,5.23
2019-01-09T21:26:02.982Z,5.26
2019-01-09T21:28:51.922Z,5.30
2019-01-09T21:31:40.779Z,4.85
2019-01-09T21:34:31.655Z,5.38
2019-01-09T21:37:20.456Z,5.42
2019-01-09T21:40:29.285Z,5.46
2019-01-09T21:43:18.268Z,5.49
2019-01-09T21:46:07.157Z,5.53
2019-01-09T21:48:56.050Z,5.55
2019-01-09T21:51:44.947Z,5.54
2019-01-09T21:54:33.788Z,5.54
2019-01-09T21:57:22.667Z,5.47
2019-01-09T22:00:32.514Z,5.53
2019-01-09T22:03:21.365Z,5.50
2019-01-09T22:06:02.943Z,5.26
2019-01-09T22:08:51.779Z,5.46
2019-01-09T22:11:40.675Z,5.44
2019-01-09T22:14:29.528Z,5.12
2019-01-09T22:17:18.346Z,5.42
2019-01-09T22:20:28.087Z,5.41
2019-01-09T22:23:16.944Z,5.41
2019-01-09T22:26:05.952Z,5.40
2019-01-09T22:28:35.460Z,5.40
2019-01-09T22:31:24.381Z,5.40
2019-01-09T22:34:13.170Z,5.42
2019-01-09T22:37:01.997Z,5.42
2019-01-09T22:39:43.751Z,5.43
2019-01-09T22:42:32.699Z,5.43
2019-01-09T22:45:21.609Z,5.44
2019-01-09T22:48:10.473Z,5.43
2019-01-09T22:50:59.273Z,5.43
2019-01-09T22:53:47.800Z,5.42
2019-01-09T22:56:36.620Z,5.42
2019-01-09T22:59:25.468Z,5.39
2019-01-09T23:02:14.568Z,5.38
2019-01-09T23:05:03.402Z,5.37
2019-01-09T23:07:52.325Z,5.35
2019-01-09T23:10:41.278Z,5.35
2019-01-09T23:13:30.166Z,5.28
2019-01-09T23:16:19.019Z,5.32
2019-01-09T23:19:08.016Z,5.32
2019-01-09T23:21:56.809Z,5.30
2019-01-09T23:24:45.658Z,5.29
2019-01-09T23:27:34.536Z,5.26
2019-01-09T23:30:26.443Z,5.24
2019-01-09T23:33:15.331Z,5.23
2019-01-09T23:39:12.489Z,5.18
2019-01-09T23:42:01.383Z,4.92
2019-01-09T23:44:50.244Z,5.10
2019-01-09T23:47:39.187Z,5.09
2019-01-09T23:50:28.045Z,5.06
2019-01-09T23:53:16.959Z,5.04
2019-01-09T23:55:46.448Z,5.02
2019-01-09T23:58:35.255Z,5.01
